Time;durP1;ratioP1;P1;durP2;ratioP2;P2;SDS_P1;SDS_P2;PMS_P1;PMS_P2;Temp;Humidity;BMP_temperature;BMP_pressure;BME280_temperature;BME280_humidity;BME280_pressure;Samples;Min_cycle;Max_cycle;Signal;HPM_P1;HPM_P2
2021/03/16 00:00:21;;;;;;;4.00;1.27;;;20.90;99.90;;;;;;5071799;28;20689;-72
2021/03/16 00:02:48;;;;;;;4.87;1.47;;;20.90;99.90;;;;;;5071805;28;20191;-71
2021/03/16 00:05:16;;;;;;;4.00;1.40;;;20.80;99.90;;;;;;5072726;28;20187;-71
2021/03/16 00:07:43;;;;;;;6.07;1.37;;;20.90;99.90;;;;;;5072239;28;20183;-71
2021/03/16 00:10:11;;;;;;;8.03;1.50;;;21.00;99.90;;;;;;5072441;28;20219;-71
2021/03/16 00:12:38;;;;;;;4.37;1.63;;;21.10;99.90;;;;;;5071997;28;20176;-68
2021/03/16 00:15:06;;;;;;;4.10;1.40;;;21.20;99.90;;;;;;5072577;28;20174;-70
2021/03/16 00:17:33;;;;;;;3.70;1.23;;;21.20;99.90;;;;;;5072041;28;20208;-69
2021/03/16 00:20:01;;;;;;;2.60;1.20;;;21.30;99.90;;;;;;5071082;28;20258;-70
2021/03/16 00:22:28;;;;;;;3.47;1.30;;;21.20;99.90;;;;;;5054607;28;20279;-69
2021/03/16 00:24:55;;;;;;;2.60;1.17;;;21.20;99.90;;;;;;5051096;28;20757;-69
2021/03/16 00:27:23;;;;;;;1.90;1.20;;;21.10;99.90;;;;;;5051524;28;20219;-69
2021/03/16 00:29:50;;;;;;;2.30;0.60;;;21.00;99.90;;;;;;5057554;28;20214;-69
2021/03/16 00:32:18;;;;;;;5.47;1.20;;;20.90;99.90;;;;;;5072167;28;20262;-70
2021/03/16 00:34:45;;;;;;;2.57;0.70;;;20.90;99.90;;;;;;5071218;28;20210;-70
2021/03/16 00:37:12;;;;;;;1.57;0.50;;;20.80;99.90;;;;;;5072274;28;20179;-71
2021/03/16 00:39:40;;;;;;;3.07;0.90;;;20.70;99.90;;;;;;5072129;28;20179;-72
2021/03/16 00:42:07;;;;;;;1.43;0.60;;;20.70;99.90;;;;;;5070887;28;20253;-69
2021/03/16 00:44:34;;;;;;;3.47;0.60;;;20.70;99.90;;;;;;5071157;28;20270;-73
2021/03/16 00:47:02;;;;;;;2.87;0.90;;;20.70;99.90;;;;;;5071536;28;20194;-73
2021/03/16 00:49:29;;;;;;;0.87;0.60;;;20.60;99.90;;;;;;5070836;28;20234;-74
2021/03/16 00:51:58;;;;;;;1.63;0.90;;;20.70;99.90;;;;;;5059192;28;20206;-70
2021/03/16 00:54:26;;;;;;;1.83;0.63;;;20.80;99.90;;;;;;5071353;28;20278;-74
2021/03/16 00:56:53;;;;;;;3.00;1.30;;;20.80;99.90;;;;;;5069705;28;20187;-73
2021/03/16 00:59:21;;;;;;;6.20;1.23;;;20.90;99.90;;;;;;5071074;28;20673;-73
2021/03/16 01:01:48;;;;;;;1.27;0.77;;;21.00;99.90;;;;;;5072925;28;20191;-73
2021/03/16 01:04:15;;;;;;;4.43;0.97;;;21.30;99.90;;;;;;5068644;28;20184;-70
2021/03/16 01:06:43;;;;;;;1.60;1.00;;;21.40;99.90;;;;;;5074503;28;20189;-71
2021/03/16 01:09:10;;;;;;;3.00;0.87;;;21.40;99.90;;;;;;5075198;28;20211;-70
2021/03/16 01:11:37;;;;;;;4.33;1.40;;;21.30;99.90;;;;;;5072032;28;20266;-72
2021/03/16 01:14:08;;;;;;;3.20;1.20;;;21.40;99.90;;;;;;5075333;28;20183;-70
2021/03/16 01:16:35;;;;;;;2.30;1.13;;;21.60;99.90;;;;;;5074177;28;20609;-70
2021/03/16 01:19:03;;;;;;;2.13;0.90;;;21.90;99.90;;;;;;5069193;28;20270;-72
2021/03/16 01:21:31;;;;;;;1.40;0.70;;;22.20;99.90;;;;;;5073236;28;20199;-71
2021/03/16 01:23:58;;;;;;;2.53;0.80;;;22.30;99.90;;;;;;5074374;28;20203;-68
2021/03/16 01:26:25;;;;;;;4.27;1.00;;;22.50;99.90;;;;;;5074625;28;20775;-72
2021/03/16 01:28:53;;;;;;;2.10;1.00;;;22.50;99.90;;;;;;5073469;28;20266;-71
2021/03/16 01:31:29;;;;;;;2.03;0.83;;;22.40;99.90;;;;;;5074691;28;20187;-71
2021/03/16 01:33:57;;;;;;;2.13;0.80;;;22.60;99.90;;;;;;5074670;28;20229;-69
2021/03/16 01:36:24;;;;;;;4.97;1.00;;;22.50;99.90;;;;;;5073357;28;20203;-73
2021/03/16 01:38:51;;;;;;;6.03;1.23;;;22.50;99.90;;;;;;5072627;28;20207;-69
2021/03/16 01:41:19;;;;;;;3.77;1.00;;;22.40;99.90;;;;;;5073678;28;20230;-70
2021/03/16 01:43:46;;;;;;;4.77;0.87;;;22.30;99.90;;;;;;5074297;28;20236;-69
2021/03/16 01:46:14;;;;;;;5.63;1.30;;;22.20;99.90;;;;;;5073627;28;20211;-69
2021/03/16 01:48:41;;;;;;;2.83;0.83;;;22.30;99.90;;;;;;5072720;28;20464;-73
2021/03/16 01:51:11;;;;;;;4.80;1.10;;;22.30;99.90;;;;;;5071983;28;20191;-69
2021/03/16 01:53:41;;;;;;;2.53;1.17;;;22.30;99.90;;;;;;5072822;28;20668;-71
2021/03/16 01:56:11;;;;;;;6.03;0.90;;;22.30;99.90;;;;;;5074038;28;20281;-71
2021/03/16 01:58:41;;;;;;;4.60;0.80;;;22.40;99.90;;;;;;5073694;28;20179;-69
2021/03/16 02:01:08;;;;;;;4.87;0.97;;;22.10;99.90;;;;;;5074131;28;20224;-69
2021/03/16 02:03:35;;;;;;;4.50;0.70;;;22.00;99.90;;;;;;5073709;28;20183;-72
2021/03/16 02:06:08;;;;;;;3.10;0.90;;;22.00;99.90;;;;;;5073713;28;20286;-71
2021/03/16 02:08:42;;;;;;;1.93;0.73;;;22.00;99.90;;;;;;5072376;28;20581;-71
2021/03/16 02:11:23;;;;;;;4.80;1.40;;;22.10;99.90;;;;;;5069374;28;20605;-71
2021/03/16 02:13:57;;;;;;;9.67;1.30;;;22.00;99.90;;;;;;5073064;28;20653;-74
2021/03/16 02:16:38;;;;;;;5.43;1.13;;;22.00;99.90;;;;;;5073625;28;20660;-72
2021/03/16 02:19:18;;;;;;;3.33;1.33;;;22.10;99.90;;;;;;5072839;28;20258;-71
2021/03/16 02:21:48;;;;;;;4.03;1.27;;;22.10;99.90;;;;;;5073563;28;20175;-73
2021/03/16 02:24:20;;;;;;;4.77;1.20;;;22.00;99.90;;;;;;5071953;28;20703;-73
2021/03/16 02:27:08;;;;;;;5.20;1.10;;;21.90;99.90;;;;;;5070494;28;20179;-74
2021/03/16 02:29:51;;;;;;;4.93;1.07;;;21.90;99.90;;;;;;5073441;28;20552;-73
2021/03/16 02:32:24;;;;;;;5.67;1.03;;;21.80;99.90;;;;;;5071714;28;20171;-73
2021/03/16 02:35:02;;;;;;;3.13;1.10;;;21.70;99.90;;;;;;5072598;28;20266;-69
2021/03/16 02:37:33;;;;;;;3.80;1.40;;;21.60;99.90;;;;;;5072217;28;20225;-70
2021/03/16 02:40:02;;;;;;;9.00;1.57;;;21.60;99.90;;;;;;5069356;28;20183;-72
2021/03/16 02:42:34;;;;;;;6.83;1.60;;;21.60;99.90;;;;;;5073128;28;20547;-71
2021/03/16 02:45:04;;;;;;;4.63;0.90;;;21.60;99.90;;;;;;5070155;28;20237;-70
2021/03/16 02:47:31;;;;;;;3.17;0.80;;;21.80;99.90;;;;;;5067379;28;20236;-72
2021/03/16 02:49:59;;;;;;;3.43;1.57;;;21.90;99.90;;;;;;5071076;28;20669;-70
2021/03/16 02:52:27;;;;;;;2.97;1.00;;;22.00;99.90;;;;;;5071308;28;20179;-69
2021/03/16 02:54:56;;;;;;;3.60;0.87;;;21.70;99.90;;;;;;5070595;28;20194;-71
2021/03/16 02:57:24;;;;;;;2.97;1.00;;;21.60;99.90;;;;;;5069583;28;20214;-71
2021/03/16 02:59:53;;;;;;;2.43;1.27;;;21.50;99.90;;;;;;5072534;28;20294;-71
2021/03/16 03:02:21;;;;;;;2.47;1.40;;;21.40;99.90;;;;;;5072498;28;20179;-70
2021/03/16 03:04:49;;;;;;;1.67;0.80;;;21.50;99.90;;;;;;5070280;28;20179;-72
2021/03/16 03:07:18;;;;;;;2.03;0.90;;;21.30;99.90;;;;;;5065648;28;20221;-70
2021/03/16 03:09:46;;;;;;;1.80;0.90;;;21.30;99.90;;;;;;5070956;28;20665;-72
2021/03/16 03:12:13;;;;;;;3.47;1.10;;;21.30;99.90;;;;;;5067123;28;20194;-70
2021/03/16 03:14:40;;;;;;;4.63;1.60;;;21.30;99.90;;;;;;5069838;28;20641;-72
2021/03/16 03:17:09;;;;;;;4.70;1.57;;;21.20;99.90;;;;;;5072451;28;20705;-71
2021/03/16 03:19:36;;;;;;;5.93;1.30;;;21.20;99.90;;;;;;5071069;28;20183;-72
2021/03/16 03:22:35;;;;;;;4.80;1.27;;;21.20;99.90;;;;;;5065514;28;20210;-72
2021/03/16 03:25:06;;;;;;;4.77;1.17;;;21.10;99.90;;;;;;5065063;28;20281;-72
2021/03/16 03:27:40;;;;;;;6.93;1.80;;;21.00;99.90;;;;;;5069750;28;20304;-70
2021/03/16 03:30:09;;;;;;;6.27;1.73;;;21.00;99.90;;;;;;5069947;28;20677;-73
2021/03/16 03:32:39;;;;;;;7.60;2.03;;;21.00;99.90;;;;;;5071928;28;20280;-71
2021/03/16 03:35:07;;;;;;;5.33;1.50;;;20.90;99.90;;;;;;5065072;28;20224;-72
2021/03/16 03:37:35;;;;;;;5.07;1.93;;;21.00;99.90;;;;;;5069900;28;20533;-72
2021/03/16 03:40:05;;;;;;;8.20;2.03;;;21.10;99.90;;;;;;5071233;28;20217;-73
2021/03/16 03:42:33;;;;;;;8.40;1.83;;;21.20;99.90;;;;;;5067292;28;20649;-71
2021/03/16 03:45:04;;;;;;;7.40;1.53;;;21.10;99.90;;;;;;5071503;28;20186;-72
2021/03/16 03:47:33;;;;;;;6.43;1.77;;;21.30;99.90;;;;;;5064185;28;20267;-72
2021/03/16 03:50:01;;;;;;;8.70;1.57;;;21.50;99.90;;;;;;5072212;28;20571;-73
2021/03/16 03:52:29;;;;;;;2.87;1.40;;;21.80;99.90;;;;;;5062916;28;20176;-70
2021/03/16 03:54:58;;;;;;;5.20;1.53;;;22.00;99.90;;;;;;5059942;28;20180;-72
2021/03/16 03:57:26;;;;;;;6.63;1.13;;;22.10;99.90;;;;;;5064471;28;20224;-72
2021/03/16 03:59:55;;;;;;;4.00;1.00;;;22.00;99.90;;;;;;5070276;28;20183;-71
2021/03/16 04:02:22;;;;;;;5.50;1.20;;;21.90;99.90;;;;;;5058677;28;20171;-71
2021/03/16 04:04:50;;;;;;;6.37;1.03;;;21.90;99.90;;;;;;5071288;28;20229;-71
2021/03/16 04:07:19;;;;;;;6.93;1.30;;;22.00;99.90;;;;;;5070812;28;20221;-72
2021/03/16 04:09:46;;;;;;;2.87;1.10;;;22.20;99.90;;;;;;5058763;28;20215;-72
2021/03/16 04:12:15;;;;;;;7.80;1.43;;;22.30;99.90;;;;;;5069651;28;20262;-72
2021/03/16 04:14:42;;;;;;;5.27;1.50;;;22.40;99.90;;;;;;5071759;28;20521;-71
2021/03/16 04:17:10;;;;;;;5.50;1.50;;;22.50;99.90;;;;;;5071752;28;20236;-72
2021/03/16 04:19:38;;;;;;;1.67;0.90;;;22.50;99.90;;;;;;5069979;28;20175;-73
2021/03/16 04:22:05;;;;;;;7.10;1.20;;;22.40;99.90;;;;;;5070491;28;20183;-73
2021/03/16 04:24:35;;;;;;;5.87;1.57;;;22.30;99.90;;;;;;5068883;28;20595;-74
2021/03/16 04:27:02;;;;;;;6.13;1.20;;;22.40;99.90;;;;;;5063560;28;20280;-74
2021/03/16 04:29:29;;;;;;;2.00;1.10;;;22.20;99.90;;;;;;5070932;28;20217;-74
2021/03/16 04:31:57;;;;;;;10.10;1.50;;;22.30;99.90;;;;;;5071330;28;20178;-71
2021/03/16 04:34:24;;;;;;;2.97;0.90;;;22.20;99.90;;;;;;5070830;28;20214;-74
2021/03/16 04:36:51;;;;;;;4.47;0.93;;;22.20;99.90;;;;;;5070774;28;20228;-72
2021/03/16 04:39:19;;;;;;;4.90;1.27;;;22.10;99.90;;;;;;5071032;28;20187;-73
2021/03/16 04:41:46;;;;;;;3.23;1.03;;;22.20;99.90;;;;;;5071572;28;20633;-73
2021/03/16 04:44:14;;;;;;;4.63;1.10;;;22.20;99.90;;;;;;5069789;28;20171;-73
2021/03/16 04:46:41;;;;;;;7.90;1.10;;;22.10;99.90;;;;;;5058174;28;20664;-72
2021/03/16 04:49:08;;;;;;;5.53;1.57;;;22.00;99.90;;;;;;5065067;28;20239;-73
2021/03/16 04:51:36;;;;;;;2.33;0.97;;;22.00;99.90;;;;;;5069457;28;20178;-73
2021/03/16 04:54:03;;;;;;;5.23;1.10;;;21.80;99.90;;;;;;5071476;28;20195;-70
2021/03/16 04:56:30;;;;;;;2.47;0.70;;;21.60;99.90;;;;;;5070708;28;20642;-72
2021/03/16 04:58:58;;;;;;;5.13;1.30;;;21.50;99.90;;;;;;5070171;28;20537;-72
2021/03/16 05:01:25;;;;;;;4.27;1.00;;;21.50;99.90;;;;;;5065461;28;20179;-70
2021/03/16 05:03:53;;;;;;;6.50;1.23;;;21.60;99.90;;;;;;5070328;28;20183;-72
2021/03/16 05:06:20;;;;;;;7.70;1.33;;;21.60;99.90;;;;;;5070381;28;20171;-71
2021/03/16 05:08:47;;;;;;;4.37;0.80;;;21.70;99.90;;;;;;5064008;28;20685;-73
2021/03/16 05:11:15;;;;;;;6.33;1.13;;;21.70;99.90;;;;;;5069805;28;20221;-72
2021/03/16 05:13:42;;;;;;;3.60;1.30;;;21.50;99.90;;;;;;5065503;28;20358;-72
2021/03/16 05:16:09;;;;;;;6.00;1.20;;;21.40;99.90;;;;;;5069710;28;20191;-72
2021/03/16 05:18:37;;;;;;;5.87;1.40;;;21.30;99.90;;;;;;5070757;28;20630;-70
2021/03/16 05:21:05;;;;;;;7.63;1.30;;;21.20;99.90;;;;;;5064293;28;20666;-71
2021/03/16 05:23:32;;;;;;;4.80;1.70;;;21.00;99.90;;;;;;5062658;28;20172;-72
2021/03/16 05:26:00;;;;;;;9.37;2.10;;;20.90;99.90;;;;;;5059100;28;20266;-69
2021/03/16 05:28:27;;;;;;;9.57;2.10;;;20.80;99.90;;;;;;5070762;28;20314;-69
2021/03/16 05:30:54;;;;;;;6.53;1.80;;;20.80;99.90;;;;;;5070174;28;20179;-71
2021/03/16 05:33:22;;;;;;;3.80;1.70;;;20.60;99.90;;;;;;5064119;28;20649;-73
2021/03/16 05:35:49;;;;;;;6.60;1.50;;;20.50;99.90;;;;;;5070619;28;20411;-73
2021/03/16 05:38:17;;;;;;;8.40;1.60;;;20.30;99.90;;;;;;5070346;28;20270;-72
2021/03/16 05:40:45;;;;;;;8.80;1.90;;;20.30;99.90;;;;;;5056217;28;20245;-72
2021/03/16 05:43:12;;;;;;;11.63;3.40;;;20.20;99.90;;;;;;5060923;28;20602;-71
2021/03/16 05:45:43;;;;;;;3.17;1.87;;;20.20;99.90;;;;;;5070765;28;20237;-72
2021/03/16 05:48:11;;;;;;;6.77;2.10;;;20.10;99.90;;;;;;5070995;28;20179;-71
2021/03/16 05:50:39;;;;;;;2.37;1.23;;;20.00;99.90;;;;;;5072130;28;20223;-70
2021/03/16 05:53:07;;;;;;;8.10;1.80;;;20.00;99.90;;;;;;5074766;28;20213;-70
2021/03/16 05:55:34;;;;;;;3.83;1.20;;;20.00;99.90;;;;;;5074165;28;20191;-71
2021/03/16 05:58:02;;;;;;;4.90;1.10;;;20.00;99.90;;;;;;5074109;28;20843;-73
2021/03/16 06:00:29;;;;;;;4.90;1.10;;;20.00;99.90;;;;;;5066484;28;20646;-72
2021/03/16 06:02:57;;;;;;;3.33;0.83;;;19.90;99.90;;;;;;5068606;28;20228;-70
2021/03/16 06:05:24;;;;;;;4.03;1.00;;;20.00;99.90;;;;;;5074126;28;20183;-70
2021/03/16 06:07:52;;;;;;;4.67;1.10;;;20.10;99.90;;;;;;5072039;28;20186;-71
2021/03/16 06:10:23;;;;;;;3.33;1.00;;;20.20;99.90;;;;;;5073685;28;20203;-71
2021/03/16 06:12:51;;;;;;;6.80;1.40;;;20.20;99.90;;;;;;5061380;28;20241;-72
2021/03/16 06:15:20;;;;;;;2.87;1.03;;;20.30;99.90;;;;;;5065816;28;20182;-71
2021/03/16 06:17:52;;;;;;;2.77;1.07;;;20.40;99.90;;;;;;5073066;28;20190;-71
2021/03/16 06:20:32;;;;;;;5.87;1.37;;;20.50;99.90;;;;;;5065523;28;20188;-71
2021/03/16 06:23:04;;;;;;;2.27;1.00;;;20.50;99.90;;;;;;5068911;28;20167;-71
2021/03/16 06:25:36;;;;;;;7.40;1.70;;;20.50;99.90;;;;;;5059440;28;20215;-71
2021/03/16 06:28:06;;;;;;;8.07;2.33;;;20.40;99.90;;;;;;5075476;28;20210;-71
2021/03/16 06:30:34;;;;;;;6.87;2.20;;;20.30;99.90;;;;;;5080512;28;20218;-71
2021/03/16 06:33:02;;;;;;;12.77;4.93;;;20.30;99.90;;;;;;5077589;28;20227;-71
2021/03/16 06:35:29;;;;;;;5.17;1.00;;;20.10;99.90;;;;;;5078585;28;20221;-71
2021/03/16 06:38:02;;;;;;;5.20;1.27;;;19.80;99.90;;;;;;5074139;28;20368;-72
2021/03/16 06:40:31;;;;;;;2.33;1.13;;;19.70;99.90;;;;;;5072310;28;20183;-71
2021/03/16 06:43:11;;;;;;;4.07;0.90;;;19.50;99.90;;;;;;5073636;28;20241;-71
2021/03/16 06:45:40;;;;;;;5.23;2.27;;;19.40;99.90;;;;;;5070456;28;20205;-72
2021/03/16 06:48:19;;;;;;;4.47;1.00;;;19.40;99.90;;;;;;5070658;28;20183;-72
2021/03/16 06:50:47;;;;;;;1.17;0.70;;;19.40;99.90;;;;;;5069606;28;20210;-72
2021/03/16 06:53:22;;;;;;;3.67;1.00;;;19.50;99.90;;;;;;5073312;28;20179;-72
2021/03/16 06:55:57;;;;;;;5.33;1.97;;;19.60;99.90;;;;;;5073420;28;20672;-72
2021/03/16 06:58:32;;;;;;;4.17;1.87;;;19.70;99.90;;;;;;5073611;28;20174;-72
2021/03/16 07:01:08;;;;;;;13.93;5.23;;;19.70;99.90;;;;;;5072987;28;20202;-70
2021/03/16 07:03:39;;;;;;;5.00;1.50;;;19.90;99.90;;;;;;5073744;28;20254;-70
2021/03/16 07:06:16;;;;;;;4.17;1.40;;;19.90;99.90;;;;;;5073054;28;20186;-71
2021/03/16 07:08:46;;;;;;;5.97;1.00;;;20.00;99.90;;;;;;5063332;28;20249;-72
2021/03/16 07:11:24;;;;;;;3.47;1.20;;;20.10;99.90;;;;;;5073115;28;20195;-71
2021/03/16 07:13:52;;;;;;;4.90;1.23;;;20.10;99.90;;;;;;5059390;28;20183;-71
2021/03/16 07:16:19;;;;;;;4.63;0.93;;;20.30;99.90;;;;;;5069331;28;20205;-70
2021/03/16 07:18:47;;;;;;;4.53;1.50;;;20.20;99.90;;;;;;5072163;28;20187;-70
2021/03/16 07:21:38;;;;;;;3.07;1.37;;;20.20;99.90;;;;;;5072925;28;20680;-68
2021/03/16 07:24:11;;;;;;;8.97;2.53;;;20.20;99.90;;;;;;5072917;28;20736;-70
2021/03/16 07:26:40;;;;;;;10.20;2.20;;;20.10;99.90;;;;;;5054956;28;20313;-70
2021/03/16 07:29:09;;;;;;;8.07;2.10;;;20.10;99.90;;;;;;5068612;28;20697;-71
2021/03/16 07:31:38;;;;;;;9.07;1.70;;;20.00;99.90;;;;;;5062039;28;20187;-71
2021/03/16 07:34:07;;;;;;;7.10;1.83;;;20.00;99.90;;;;;;5062033;28;20545;-71
2021/03/16 07:36:38;;;;;;;12.17;1.83;;;19.90;99.90;;;;;;5075604;28;20674;-70
2021/03/16 07:39:08;;;;;;;10.30;2.23;;;19.80;99.90;;;;;;5073330;28;20195;-70
2021/03/16 07:41:41;;;;;;;11.10;2.60;;;19.80;99.90;;;;;;5070200;28;20179;-69
2021/03/16 07:44:13;;;;;;;16.23;3.80;;;19.70;99.90;;;;;;5072936;28;20179;-71
2021/03/16 07:46:52;;;;;;;19.87;6.07;;;19.80;99.90;;;;;;5073860;28;20179;-71
2021/03/16 07:49:34;;;;;;;12.23;3.40;;;19.70;99.90;;;;;;5072215;28;20199;-69
2021/03/16 07:52:03;;;;;;;22.70;3.57;;;19.70;99.90;;;;;;5066575;28;20211;-68
2021/03/16 07:54:40;;;;;;;11.03;2.33;;;19.70;99.90;;;;;;5073339;28;20198;-68
2021/03/16 07:57:11;;;;;;;12.30;2.50;;;19.70;99.90;;;;;;5073225;28;20273;-70
2021/03/16 07:59:39;;;;;;;20.80;2.20;;;19.70;99.90;;;;;;5073440;28;20229;-70
2021/03/16 08:02:06;;;;;;;14.37;2.67;;;19.70;99.90;;;;;;5073404;28;20539;-70
2021/03/16 08:04:41;;;;;;;18.53;4.57;;;19.70;99.90;;;;;;5071676;28;20202;-70
2021/03/16 08:07:12;;;;;;;17.73;5.47;;;19.70;99.90;;;;;;5072828;28;20186;-71
2021/03/16 08:09:52;;;;;;;15.07;2.60;;;19.60;99.90;;;;;;5072985;28;20210;-70
2021/03/16 08:12:22;;;;;;;13.63;2.83;;;19.70;99.90;;;;;;5072776;28;20186;-71
2021/03/16 08:14:49;;;;;;;12.27;2.63;;;19.70;99.90;;;;;;5072544;28;20183;-72
2021/03/16 08:17:35;;;;;;;12.27;2.63;;;19.70;99.90;;;;;;5072193;28;20266;-71
2021/03/16 08:20:03;;;;;;;19.67;2.33;;;19.70;99.90;;;;;;5058931;28;20514;-70
2021/03/16 08:22:31;;;;;;;13.23;2.93;;;19.60;99.90;;;;;;5068139;28;20606;-70
2021/03/16 08:25:08;;;;;;;13.87;2.10;;;19.60;99.90;;;;;;5072620;28;20273;-70
2021/03/16 08:27:38;;;;;;;11.83;2.00;;;19.60;99.90;;;;;;5072754;28;20309;-70
2021/03/16 08:30:11;;;;;;;14.30;4.23;;;19.60;99.90;;;;;;5058280;28;20226;-71
2021/03/16 08:32:40;;;;;;;9.53;2.03;;;19.60;99.90;;;;;;5072642;28;20198;-71
2021/03/16 08:35:08;;;;;;;15.07;4.43;;;19.60;99.90;;;;;;5072221;28;20588;-68
2021/03/16 08:37:36;;;;;;;10.33;5.53;;;19.70;99.90;;;;;;5072737;28;20168;-69
2021/03/16 08:40:05;;;;;;;12.63;3.07;;;19.70;99.90;;;;;;5072508;28;20183;-70
2021/03/16 08:42:36;;;;;;;12.80;2.50;;;19.60;99.90;;;;;;5072513;28;20179;-68
2021/03/16 08:45:04;;;;;;;9.27;2.13;;;19.70;99.90;;;;;;5072513;28;20194;-70
2021/03/16 08:47:31;;;;;;;8.60;1.70;;;19.70;99.90;;;;;;5072489;28;20312;-70
2021/03/16 08:49:59;;;;;;;12.87;2.47;;;19.70;99.90;;;;;;5070435;28;20610;-69
2021/03/16 08:52:28;;;;;;;10.93;2.33;;;19.70;99.90;;;;;;5072015;28;20523;-71
2021/03/16 08:54:58;;;;;;;7.63;1.70;;;19.70;99.90;;;;;;5070870;28;20553;-70
2021/03/16 08:57:30;;;;;;;9.70;1.70;;;19.70;99.90;;;;;;5072281;28;20215;-71
2021/03/16 08:59:59;;;;;;;8.47;2.23;;;19.70;99.90;;;;;;5072671;28;20541;-71
2021/03/16 09:02:39;;;;;;;12.00;2.40;;;19.70;99.90;;;;;;5073302;28;20640;-69
2021/03/16 09:05:17;;;;;;;11.47;1.93;;;19.70;99.90;;;;;;5072853;28;20195;-71
2021/03/16 09:07:44;;;;;;;20.63;11.07;;;19.80;99.90;;;;;;5072379;28;20178;-69
2021/03/16 09:10:20;;;;;;;14.00;4.27;;;19.80;99.90;;;;;;5071341;28;20569;-70
2021/03/16 09:12:48;;;;;;;8.83;1.80;;;19.80;99.90;;;;;;5062390;28;20179;-72
2021/03/16 09:15:27;;;;;;;11.90;2.03;;;19.80;99.90;;;;;;5071180;28;20176;-71
2021/03/16 09:18:04;;;;;;;15.53;2.53;;;19.80;99.90;;;;;;5070673;28;20641;-71
2021/03/16 09:20:41;;;;;;;5.13;1.47;;;19.70;99.90;;;;;;5070523;28;20178;-74
2021/03/16 09:23:12;;;;;;;16.80;2.67;;;19.70;99.90;;;;;;5074205;28;20665;-70
2021/03/16 09:25:45;;;;;;;14.67;2.73;;;19.70;99.90;;;;;;5074632;28;20167;-72
2021/03/16 09:28:15;;;;;;;12.97;2.27;;;19.70;99.90;;;;;;5075511;28;20360;-70
2021/03/16 09:30:55;;;;;;;9.47;2.30;;;19.80;99.90;;;;;;5075496;28;20214;-70
2021/03/16 09:33:24;;;;;;;9.20;2.10;;;19.80;99.90;;;;;;5075726;28;20171;-70
2021/03/16 09:36:03;;;;;;;8.40;2.57;;;19.80;99.90;;;;;;5075283;28;20213;-73
2021/03/16 09:38:30;;;;;;;14.20;2.53;;;19.90;99.90;;;;;;5075570;28;20634;-73
2021/03/16 09:40:58;;;;;;;14.67;2.20;;;20.00;99.90;;;;;;5074987;28;20171;-69
2021/03/16 09:43:36;;;;;;;13.73;3.10;;;20.00;99.90;;;;;;5067971;28;20262;-70
2021/03/16 09:46:09;;;;;;;18.70;3.63;;;20.00;99.90;;;;;;5065294;28;20191;-71
2021/03/16 09:48:38;;;;;;;19.57;4.67;;;19.90;99.90;;;;;;5068329;28;20217;-68
2021/03/16 09:51:31;;;;;;;15.17;3.13;;;19.70;99.90;;;;;;5073780;28;20511;-72
2021/03/16 09:54:00;;;;;;;15.73;2.60;;;19.60;99.90;;;;;;5072147;28;20187;-72
2021/03/16 09:56:36;;;;;;;16.00;2.60;;;19.50;99.90;;;;;;5075366;28;20217;-72
2021/03/16 09:59:04;;;;;;;13.50;2.77;;;19.60;99.90;;;;;;5074778;28;20324;-71
2021/03/16 10:01:38;;;;;;;18.67;2.60;;;19.60;99.90;;;;;;5074941;28;20188;-70
2021/03/16 10:04:10;;;;;;;21.87;3.40;;;19.60;99.90;;;;;;5073712;28;20186;-70
2021/03/16 10:06:42;;;;;;;19.90;3.33;;;19.60;99.90;;;;;;5062417;28;20180;-71
2021/03/16 10:09:21;;;;;;;15.43;2.73;;;19.60;99.90;;;;;;5073491;28;20194;-69
2021/03/16 10:11:52;;;;;;;14.40;2.60;;;19.60;99.90;;;;;;5074982;28;20190;-69
2021/03/16 10:14:27;;;;;;;24.37;3.80;;;19.60;99.90;;;;;;5074261;28;20187;-72
2021/03/16 10:16:58;;;;;;;23.93;4.57;;;19.70;99.90;;;;;;5074634;28;20224;-73
2021/03/16 10:19:25;;;;;;;21.43;3.87;;;19.60;99.90;;;;;;5073458;28;20254;-71
2021/03/16 10:21:55;;;;;;;18.87;3.00;;;19.60;99.90;;;;;;5072971;28;20191;-70
2021/03/16 10:24:29;;;;;;;18.03;2.60;;;19.70;99.90;;;;;;5072649;28;20167;-71
2021/03/16 10:27:00;;;;;;;18.13;2.93;;;19.70;99.90;;;;;;5074581;28;20565;-72
2021/03/16 10:29:28;;;;;;;18.40;2.80;;;19.70;99.90;;;;;;5074420;28;20233;-72
2021/03/16 10:31:55;;;;;;;13.20;2.63;;;19.70;99.90;;;;;;5074721;28;20187;-71
2021/03/16 10:34:23;;;;;;;18.43;2.53;;;19.70;99.90;;;;;;5073193;28;20656;-71
2021/03/16 10:36:50;;;;;;;22.60;3.93;;;19.80;99.90;;;;;;5073485;28;20179;-71
2021/03/16 10:39:17;;;;;;;20.07;3.27;;;19.80;99.90;;;;;;5073773;28;20189;-72
2021/03/16 10:41:45;;;;;;;38.50;6.67;;;19.90;99.90;;;;;;5074503;28;20535;-69
2021/03/16 10:44:12;;;;;;;17.00;2.53;;;19.80;99.90;;;;;;5074127;28;20219;-72
2021/03/16 10:46:39;;;;;;;20.00;4.63;;;19.90;99.90;;;;;;5073996;28;20171;-71
2021/03/16 10:49:07;;;;;;;15.33;3.37;;;20.00;99.90;;;;;;5071676;28;20265;-70
2021/03/16 10:51:34;;;;;;;12.93;2.57;;;20.00;99.90;;;;;;5060651;28;20183;-70
2021/03/16 10:54:01;;;;;;;17.33;2.63;;;20.10;99.90;;;;;;5073311;28;20215;-71
2021/03/16 10:56:29;;;;;;;21.97;3.03;;;20.10;99.90;;;;;;5069928;28;20185;-70
2021/03/16 10:58:56;;;;;;;14.10;2.47;;;20.10;99.90;;;;;;5073235;28;20641;-70
2021/03/16 11:01:23;;;;;;;18.97;2.77;;;20.10;99.90;;;;;;5069094;28;20252;-71
2021/03/16 11:03:51;;;;;;;22.77;3.30;;;20.20;99.90;;;;;;5065165;28;20180;-71
2021/03/16 11:06:18;;;;;;;17.57;2.50;;;20.20;99.90;;;;;;5056812;28;20194;-69
2021/03/16 11:08:45;;;;;;;16.80;2.60;;;20.20;99.90;;;;;;5071470;28;20186;-69
2021/03/16 11:11:13;;;;;;;20.60;2.70;;;20.20;99.90;;;;;;5072338;28;20171;-69
2021/03/16 11:13:40;;;;;;;14.50;2.50;;;20.20;99.90;;;;;;5072501;28;20267;-68
2021/03/16 11:16:08;;;;;;;12.80;2.37;;;20.20;99.90;;;;;;5062712;28;20203;-70
2021/03/16 11:18:35;;;;;;;18.93;3.13;;;20.30;99.90;;;;;;5066430;28;20219;-69
2021/03/16 11:21:02;;;;;;;17.63;2.77;;;20.30;99.90;;;;;;5062263;28;20180;-71
2021/03/16 11:23:30;;;;;;;13.03;2.60;;;20.30;99.90;;;;;;5070208;28;20175;-72
2021/03/16 11:25:57;;;;;;;16.17;2.90;;;20.40;99.90;;;;;;5073410;28;20179;-70
2021/03/16 11:28:24;;;;;;;25.93;3.20;;;20.40;99.90;;;;;;5073107;28;20222;-70
2021/03/16 11:30:52;;;;;;;14.30;2.30;;;20.40;99.90;;;;;;5072385;28;20215;-70
2021/03/16 11:33:19;;;;;;;25.07;3.83;;;20.30;99.90;;;;;;5071992;28;20172;-71
2021/03/16 11:35:47;;;;;;;11.20;2.30;;;20.30;99.90;;;;;;5072776;28;20178;-71
2021/03/16 11:38:14;;;;;;;15.40;2.87;;;20.30;99.90;;;;;;5071119;28;20704;-71
2021/03/16 11:40:41;;;;;;;16.73;3.03;;;20.30;99.90;;;;;;5072620;28;20534;-70
2021/03/16 11:43:09;;;;;;;16.27;2.93;;;20.30;99.90;;;;;;5070277;28;20646;-70
2021/03/16 11:45:37;;;;;;;14.53;2.50;;;20.30;99.90;;;;;;5071294;28;20669;-70
2021/03/16 11:48:05;;;;;;;19.13;2.80;;;20.30;99.90;;;;;;5072089;28;20558;-71
2021/03/16 11:50:33;;;;;;;18.30;3.00;;;20.20;99.90;;;;;;5072497;28;20247;-70
2021/03/16 11:53:00;;;;;;;24.90;3.20;;;20.30;99.90;;;;;;5070000;28;20669;-69
2021/03/16 11:55:28;;;;;;;23.77;3.40;;;20.20;99.90;;;;;;5072970;28;20179;-70
2021/03/16 11:57:55;;;;;;;21.70;3.67;;;20.30;99.90;;;;;;5071679;28;20706;-71
2021/03/16 12:00:23;;;;;;;22.20;3.83;;;20.30;99.90;;;;;;5072638;28;20175;-69
2021/03/16 12:02:50;;;;;;;21.97;3.37;;;20.20;99.90;;;;;;5072481;28;20270;-72
2021/03/16 12:05:17;;;;;;;15.87;3.07;;;20.30;99.90;;;;;;5072598;28;20258;-70
2021/03/16 12:07:45;;;;;;;15.93;2.63;;;20.30;99.90;;;;;;5072712;28;20229;-70
2021/03/16 12:10:13;;;;;;;21.10;3.47;;;20.30;99.90;;;;;;5072730;28;20620;-68
2021/03/16 12:12:40;;;;;;;25.37;3.40;;;20.30;99.90;;;;;;5072294;28;20575;-68
2021/03/16 12:15:12;;;;;;;20.57;3.13;;;20.30;99.90;;;;;;5073026;28;20171;-69
2021/03/16 12:17:39;;;;;;;17.67;3.20;;;20.30;99.90;;;;;;5073277;28;20182;-69
2021/03/16 12:20:08;;;;;;;19.27;3.27;;;20.40;99.90;;;;;;5073615;28;20190;-68
2021/03/16 12:22:36;;;;;;;20.43;3.10;;;20.30;99.90;;;;;;5072354;28;20253;-69
2021/03/16 12:25:07;;;;;;;24.50;3.13;;;20.40;99.90;;;;;;5072833;28;20266;-68
2021/03/16 12:27:34;;;;;;;18.50;2.97;;;20.40;99.90;;;;;;5070750;28;20227;-69
2021/03/16 12:30:02;;;;;;;19.77;3.40;;;20.40;99.90;;;;;;5060619;28;20222;-70
2021/03/16 12:32:30;;;;;;;17.67;2.97;;;20.30;99.90;;;;;;5072911;28;20187;-71
2021/03/16 12:34:58;;;;;;;20.53;2.77;;;20.30;99.90;;;;;;5072977;28;20220;-69
2021/03/16 12:37:25;;;;;;;18.73;2.83;;;20.30;99.90;;;;;;5071626;28;20172;-70
2021/03/16 12:39:53;;;;;;;22.03;3.13;;;20.30;99.90;;;;;;5060096;28;20175;-71
2021/03/16 12:42:20;;;;;;;17.83;2.67;;;20.30;99.90;;;;;;5071896;28;20191;-69
2021/03/16 12:44:48;;;;;;;17.50;2.20;;;20.30;99.90;;;;;;5072657;28;20527;-71
2021/03/16 12:47:15;;;;;;;15.20;3.03;;;20.30;99.90;;;;;;5071615;28;20193;-70
2021/03/16 12:49:43;;;;;;;11.53;3.10;;;20.30;99.90;;;;;;5072341;28;20427;-71
2021/03/16 12:52:10;;;;;;;16.80;2.83;;;20.30;99.90;;;;;;5072779;28;20546;-68
2021/03/16 12:54:37;;;;;;;14.63;2.43;;;20.30;99.90;;;;;;5070649;28;20171;-68